»·PEaware :: AAL2086 KSNA-KTUS

AAL2086 :: KSNA-KTUS

FLIGHT INFORMATION

Flight Status: Arrived
Operator:
American Airlines
More flights by this operator :: More flights under this callsign
Pilot: Anonymous 17611 (17611)
Aircraft: AIRBUS A321
(A321)
More flights by this aircraft type
Origin: KSNA John Wayne-Orange Co
United States
Destination: KTUS Tucson Intl
United States
More flights between these airports :: More routes between these airports
Route: PIGGN3 CNERY BLH GBN DINGO5
File this flight plan on PilotEdge
Remarks:
Altitude:
(Current/Filed)
29,000ft
Speed:
(Current/Filed)
437kts
Departed: 26-Sep-22 03:39 PM
Arrived: 26-Sep-22 04:39 PM
Distance/Time
Traveled:
362nm/0:59
Distance/Time
To Go:
Arrived

Flight Plot

Page will automatically refresh every two minutes.

Flight plan parsing failed; only flown route is shown


Map Options




Map Legend


Flown Route
Filed Route
Departure Airport
Arrival Airport
Navaid (VOR, NDB)
Fix

Horizontal Profiles

Position Reports

Time Latitude Longitude Heading Altitude Ground
Speed
26-Sep-22 15:15 33.680053 -117.861853 105 54ft 0kts
26-Sep-22 15:16 33.680053 -117.861853 105 54ft 0kts
26-Sep-22 15:17 33.680053 -117.861853 105 54ft 0kts
26-Sep-22 15:18 33.680053 -117.861853 105 54ft 0kts
26-Sep-22 15:19 33.680053 -117.861853 105 54ft 0kts
26-Sep-22 15:20 33.680053 -117.861853 105 54ft 0kts
26-Sep-22 15:21 33.680053 -117.861853 105 54ft 0kts
26-Sep-22 15:22 33.680053 -117.861853 105 54ft 0kts
26-Sep-22 15:23 33.680053 -117.861853 105 54ft 0kts
26-Sep-22 15:24 33.680053 -117.861853 105 54ft 0kts
26-Sep-22 15:25 33.680053 -117.861853 105 54ft 0kts
26-Sep-22 15:26 33.680053 -117.861853 105 54ft 0kts
26-Sep-22 15:27 33.680053 -117.861853 105 54ft 0kts
26-Sep-22 15:28 33.680053 -117.861853 105 54ft 0kts
26-Sep-22 15:29 33.680053 -117.861853 105 54ft 0kts
26-Sep-22 15:30 33.680074 -117.861952 105 54ft 5kts
26-Sep-22 15:31 33.680060 -117.863320 24 54ft 0kts
26-Sep-22 15:32 33.680060 -117.863321 24 54ft 0kts
26-Sep-22 15:33 33.680060 -117.863321 24 54ft 0kts
26-Sep-22 15:34 33.680638 -117.863121 314 54ft 0kts
26-Sep-22 15:35 33.680638 -117.863121 314 54ft 0kts
26-Sep-22 15:36 33.680644 -117.863128 313 54ft 0kts
26-Sep-22 15:37 33.681279 -117.865243 210 54ft 0kts
26-Sep-22 15:38 33.654688 -117.882305 208 1238ft 167kts
26-Sep-22 15:39 33.606621 -117.895428 184 2839ft 210kts
26-Sep-22 15:40 33.542246 -117.882704 151 4192ft 271kts
26-Sep-22 15:42 33.490675 -117.818431 113 6790ft 281kts
26-Sep-22 15:43 33.477942 -117.726639 83 9268ft 290kts
26-Sep-22 15:44 33.510625 -117.635073 59 10905ft 324kts
26-Sep-22 15:45 33.559080 -117.534370 60 11821ft 373kts
26-Sep-22 15:46 33.581931 -117.410234 91 13222ft 396kts
26-Sep-22 15:47 33.578227 -117.276729 89 14918ft 405kts
26-Sep-22 15:48 33.597556 -117.142497 75 16426ft 415kts
26-Sep-22 15:49 33.620852 -117.033312 78 17509ft 422kts
26-Sep-22 15:50 33.626275 -116.891588 91 18787ft 430kts
26-Sep-22 15:51 33.622232 -116.747272 91 19984ft 436kts
26-Sep-22 15:52 33.618263 -116.601116 91 21071ft 443kts
26-Sep-22 15:53 33.614118 -116.452581 91 22038ft 450kts
26-Sep-22 15:54 33.609777 -116.301268 91 22903ft 456kts
26-Sep-22 15:55 33.605906 -116.148145 91 23713ft 462kts
26-Sep-22 15:56 33.617750 -115.995238 71 24461ft 467kts
26-Sep-22 15:57 33.663739 -115.850230 68 25532ft 463kts
26-Sep-22 15:58 33.709464 -115.705853 69 26522ft 460kts
26-Sep-22 15:59 33.744969 -115.560063 88 27334ft 459kts
26-Sep-22 16:00 33.721245 -115.409293 102 27921ft 462kts
26-Sep-22 16:01 33.692094 -115.258712 102 28493ft 465kts
26-Sep-22 16:02 33.663046 -115.107588 102 29007ft 467kts
26-Sep-22 16:03 33.633666 -114.955702 102 29019ft 468kts
26-Sep-22 16:04 33.604008 -114.803398 103 29006ft 468kts
26-Sep-22 16:05 33.564068 -114.654968 109 28988ft 469kts
26-Sep-22 16:05 33.527535 -114.532724 109 28983ft 469kts
26-Sep-22 16:06 33.483506 -114.385566 109 28994ft 468kts
26-Sep-22 16:08 33.432175 -114.214376 109 29024ft 468kts
26-Sep-22 16:09 33.388014 -114.068109 109 29048ft 468kts
26-Sep-22 16:09 33.350965 -113.946061 109 29059ft 468kts
26-Sep-22 16:10 33.306467 -113.800146 109 29054ft 468kts
26-Sep-22 16:12 33.254341 -113.630107 109 29039ft 467kts
26-Sep-22 16:13 33.209574 -113.484820 109 29005ft 468kts
26-Sep-22 16:13 33.171952 -113.363266 109 28992ft 468kts
26-Sep-22 16:14 33.126720 -113.217319 110 28990ft 468kts
26-Sep-22 16:15 33.081224 -113.071550 110 28977ft 468kts
26-Sep-22 16:16 33.035757 -112.926636 110 28969ft 468kts
26-Sep-22 16:18 32.982153 -112.756578 110 28957ft 469kts
26-Sep-22 16:18 32.941773 -112.636968 114 28967ft 468kts
26-Sep-22 16:19 32.886946 -112.494813 114 25755ft 470kts
26-Sep-22 16:20 32.833845 -112.358339 114 22989ft 442kts
26-Sep-22 16:21 32.783534 -112.228065 114 20755ft 424kts
26-Sep-22 16:22 32.735191 -112.103553 114 18556ft 407kts
26-Sep-22 16:23 32.688507 -111.983813 114 16388ft 392kts
26-Sep-22 16:24 32.643360 -111.868404 114 14259ft 381kts
26-Sep-22 16:25 32.599381 -111.756243 114 12159ft 370kts
26-Sep-22 16:26 32.555872 -111.647499 118 10098ft 360kts
26-Sep-22 16:27 32.503500 -111.555678 120 8847ft 299kts
26-Sep-22 16:28 32.467636 -111.472873 119 7336ft 272kts
26-Sep-22 16:29 32.429905 -111.395200 119 6131ft 269kts
26-Sep-22 16:30 32.392644 -111.318333 119 5942ft 268kts
26-Sep-22 16:31 32.356915 -111.244005 119 5941ft 246kts
26-Sep-22 16:32 32.318611 -111.177430 133 5948ft 246kts
26-Sep-22 16:33 32.270099 -111.119961 135 5955ft 246kts
26-Sep-22 16:34 32.221720 -111.063293 135 5266ft 241kts
26-Sep-22 16:35 32.178576 -111.012704 134 4148ft 186kts
26-Sep-22 16:36 32.146534 -110.975206 134 3254ft 154kts
26-Sep-22 16:37 32.117133 -110.940614 133 2591ft 104kts
26-Sep-22 16:38 32.111595 -110.932097 49 2591ft 0kts
26-Sep-22 16:39 32.114867 -110.935429 314 2591ft 36kts

Navigation Log

Ident Type
Flight plan parsing failed, navigation log unavailable